createdAt,value
2023-03-10T00:01:24.367Z,10.10
2023-03-10T00:03:55.458Z,10.11
2023-03-10T00:06:26.538Z,10.14
2023-03-10T00:08:55.288Z,10.17
2023-03-10T00:11:24.063Z,10.18
2023-03-10T00:13:52.747Z,10.19
2023-03-10T00:16:24.786Z,10.22
2023-03-10T00:18:54.572Z,10.21
2023-03-10T00:21:26.325Z,10.26
2023-03-10T00:23:55.038Z,10.28
2023-03-10T00:26:24.462Z,10.31
2023-03-10T00:28:52.979Z,10.35
2023-03-10T00:31:23.498Z,10.37
2023-03-10T00:33:53.464Z,10.38
2023-03-10T00:36:24.820Z,10.39
2023-03-10T00:38:56.084Z,10.41
2023-03-10T00:41:26.999Z,10.41
2023-03-10T00:43:55.488Z,10.42
2023-03-10T00:46:23.897Z,10.44
2023-03-10T00:48:53.941Z,10.44
2023-03-10T00:51:23.415Z,10.43
2023-03-10T00:53:51.848Z,10.46
2023-03-10T00:56:22.792Z,10.46
2023-03-10T00:58:53.557Z,10.45
2023-03-10T01:01:25.482Z,10.46
2023-03-10T01:03:58.068Z,10.46
2023-03-10T01:06:27.662Z,10.47
2023-03-10T01:08:56.526Z,10.48
2023-03-10T01:15:24.780Z,10.43
2023-03-10T01:17:53.081Z,10.42
2023-03-10T01:20:22.798Z,10.45
2023-03-10T01:22:51.033Z,10.46
2023-03-10T01:25:19.417Z,10.47
2023-03-10T01:27:47.672Z,10.47
2023-03-10T01:30:16.529Z,10.48
2023-03-10T01:32:44.805Z,10.47
2023-03-10T01:35:14.042Z,10.47
2023-03-10T01:37:44.607Z,10.45
2023-03-10T01:40:18.717Z,10.44
2023-03-10T01:42:47.489Z,10.41
2023-03-10T01:46:22.468Z,10.38
2023-03-10T01:48:51.014Z,10.29
2023-03-10T01:51:19.824Z,10.31
2023-03-10T01:53:49.508Z,10.29
2023-03-10T01:56:18.880Z,10.28
2023-03-10T01:58:48.515Z,10.27
2023-03-10T02:01:19.161Z,10.26
2023-03-10T02:03:54.751Z,10.26
2023-03-10T02:06:24.687Z,10.25
2023-03-10T02:08:59.790Z,10.22
2023-03-10T02:11:28.372Z,10.22
2023-03-10T02:13:57.344Z,10.18
2023-03-10T02:16:25.655Z,10.15
2023-03-10T02:18:53.905Z,10.09
2023-03-10T02:21:33.254Z,10.05
2023-03-10T02:24:08.793Z,10.00
2023-03-10T02:26:46.988Z,9.98
2023-03-10T02:29:23.527Z,9.89
2023-03-10T02:31:52.443Z,9.87
2023-03-10T02:34:21.309Z,9.83
2023-03-10T02:36:49.519Z,9.80
2023-03-10T02:39:17.767Z,9.76
2023-03-10T02:41:46.506Z,9.75
2023-03-10T02:44:20.674Z,9.70
2023-03-10T02:46:49.007Z,9.65
2023-03-10T02:49:19.276Z,9.63
2023-03-10T02:51:48.949Z,9.60
2023-03-10T02:54:17.494Z,9.57
2023-03-10T02:56:45.900Z,9.55
2023-03-10T02:59:16.316Z,9.54
2023-03-10T03:01:44.570Z,9.50
2023-03-10T03:04:12.864Z,9.49
2023-03-10T03:06:41.232Z,9.46
2023-03-10T03:09:09.532Z,9.45
2023-03-10T03:11:37.872Z,9.45
2023-03-10T03:14:06.307Z,9.41
2023-03-10T03:16:36.011Z,9.39
2023-03-10T03:19:04.395Z,9.37
2023-03-10T03:21:33.320Z,9.35
2023-03-10T03:24:01.634Z,9.33
2023-03-10T03:26:29.868Z,9.31
2023-03-10T03:28:58.125Z,9.30
2023-03-10T03:31:27.115Z,9.27
2023-03-10T03:33:56.796Z,9.24
2023-03-10T03:36:24.977Z,9.22
2023-03-10T03:38:53.174Z,9.19
2023-03-10T03:41:21.390Z,9.17
2023-03-10T03:43:49.633Z,9.15
2023-03-10T03:46:17.990Z,9.12
2023-03-10T03:48:46.222Z,9.11
2023-03-10T03:51:15.945Z,9.10
2023-03-10T03:53:44.227Z,9.09
2023-03-10T03:56:12.464Z,9.08
2023-03-10T03:58:40.652Z,9.07
2023-03-10T04:01:09.897Z,9.06
2023-03-10T04:03:38.228Z,9.07
2023-03-10T04:06:08.379Z,9.07
2023-03-10T04:08:38.219Z,9.09
2023-03-10T04:11:06.679Z,9.10
2023-03-10T04:13:34.987Z,9.11
2023-03-10T04:16:03.235Z,9.13
2023-03-10T04:18:31.541Z,9.14
2023-03-10T04:20:59.833Z,9.15
2023-03-10T04:23:28.355Z,9.17
2023-03-10T04:25:57.961Z,9.18
2023-03-10T04:28:26.177Z,9.20
2023-03-10T04:30:54.419Z,9.20
2023-03-10T04:33:22.676Z,9.22
2023-03-10T04:35:51.595Z,9.23
2023-03-10T04:38:20.393Z,9.24
2023-03-10T04:40:55.383Z,9.24
2023-03-10T04:43:25.622Z,9.27
2023-03-10T04:45:53.967Z,9.27
2023-03-10T04:48:23.709Z,9.29
2023-03-10T04:50:57.537Z,9.28
2023-03-10T04:53:25.968Z,9.28
2023-03-10T04:55:54.422Z,9.29
2023-03-10T04:58:24.801Z,9.29
2023-03-10T05:01:02.717Z,9.29
2023-03-10T05:03:31.683Z,9.30
2023-03-10T05:05:59.907Z,9.30
2023-03-10T05:08:28.236Z,9.32
2023-03-10T05:10:56.610Z,9.34
2023-03-10T05:13:26.313Z,9.35
2023-03-10T05:15:54.748Z,9.36
2023-03-10T05:18:23.004Z,9.37
2023-03-10T05:20:55.069Z,9.35
2023-03-10T05:23:23.428Z,9.39
2023-03-10T05:25:52.136Z,9.40
2023-03-10T05:28:20.363Z,9.41
2023-03-10T05:30:49.912Z,9.42
2023-03-10T05:33:18.177Z,9.43
2023-03-10T05:35:46.568Z,9.45
2023-03-10T05:38:14.997Z,9.47
2023-03-10T05:40:46.269Z,9.46
2023-03-10T05:43:17.310Z,9.47
2023-03-10T05:45:45.857Z,9.48
2023-03-10T05:48:15.475Z,9.48
2023-03-10T05:50:43.679Z,9.51
2023-03-10T05:53:11.851Z,9.49
2023-03-10T05:55:40.105Z,9.50
2023-03-10T05:58:08.892Z,9.52
2023-03-10T06:00:37.099Z,9.54
2023-03-10T06:03:05.492Z,9.55
2023-03-10T06:05:35.172Z,9.54
2023-03-10T06:08:03.413Z,9.55
2023-03-10T06:10:31.625Z,9.55
2023-03-10T06:12:59.910Z,9.56
2023-03-10T06:15:28.229Z,9.58
2023-03-10T06:17:56.638Z,9.61
2023-03-10T06:20:25.133Z,9.61
2023-03-10T06:22:54.760Z,9.62
2023-03-10T06:25:23.055Z,9.64
2023-03-10T06:27:51.336Z,9.65
2023-03-10T06:30:20.877Z,9.66
2023-03-10T06:32:49.198Z,9.68
2023-03-10T06:35:17.705Z,9.68
2023-03-10T06:37:45.956Z,9.68
2023-03-10T06:40:15.947Z,9.68
2023-03-10T06:42:45.314Z,9.70
2023-03-10T06:45:17.214Z,9.72
2023-03-10T06:47:45.628Z,9.75
2023-03-10T06:50:14.910Z,9.78
2023-03-10T06:52:43.291Z,9.80
2023-03-10T06:55:13.761Z,9.82
2023-03-10T06:57:43.412Z,9.85
2023-03-10T07:00:15.829Z,9.86
2023-03-10T07:02:44.153Z,9.89
2023-03-10T07:05:14.679Z,9.88
2023-03-10T07:07:43.264Z,9.88
2023-03-10T07:10:13.212Z,9.88
2023-03-10T07:12:42.872Z,9.90
2023-03-10T07:15:12.391Z,9.89
2023-03-10T07:17:40.666Z,9.90
2023-03-10T07:20:11.443Z,9.93
2023-03-10T07:22:39.704Z,9.99
2023-03-10T07:25:09.267Z,10.02
2023-03-10T07:27:37.722Z,9.98
2023-03-10T07:30:10.199Z,10.06
2023-03-10T07:32:38.613Z,10.14
2023-03-10T07:35:08.431Z,10.24
2023-03-10T07:37:39.521Z,10.32
2023-03-10T07:40:10.360Z,10.41
2023-03-10T07:42:38.646Z,10.49
2023-03-10T07:45:09.568Z,10.61
2023-03-10T07:47:37.903Z,10.68
2023-03-10T07:50:07.322Z,10.82
2023-03-10T07:52:35.571Z,10.96
2023-03-10T07:55:03.863Z,11.10
2023-03-10T07:57:32.158Z,11.21
2023-03-10T08:00:00.482Z,11.34
2023-03-10T08:02:30.116Z,11.48
2023-03-10T08:04:58.793Z,11.65
2023-03-10T08:07:27.645Z,11.82
2023-03-10T08:09:56.369Z,11.96
2023-03-10T08:12:24.916Z,12.06
2023-03-10T08:14:54.007Z,12.30
2023-03-10T08:17:23.371Z,12.45
2023-03-10T08:19:53.102Z,12.60
2023-03-10T08:22:22.721Z,12.81
2023-03-10T08:24:51.075Z,12.92
2023-03-10T08:27:19.488Z,13.04
2023-03-10T08:29:47.739Z,13.19
2023-03-10T08:32:16.089Z,13.35
2023-03-10T08:34:44.585Z,13.43
2023-03-10T08:37:14.263Z,13.52
2023-03-10T08:39:42.556Z,13.63
2023-03-10T08:42:12.785Z,13.73
2023-03-10T08:44:41.829Z,13.85
2023-03-10T08:47:10.313Z,13.96
2023-03-10T08:49:38.928Z,14.04
2023-03-10T08:52:07.900Z,14.19
2023-03-10T08:54:37.586Z,14.35
2023-03-10T08:57:06.026Z,14.45
2023-03-10T08:59:34.584Z,14.63
2023-03-10T09:02:03.098Z,14.77
2023-03-10T09:04:31.454Z,14.94
2023-03-10T09:06:59.684Z,15.11
2023-03-10T09:09:27.921Z,15.22
2023-03-10T09:11:57.529Z,15.31
2023-03-10T09:14:25.865Z,15.34
2023-03-10T09:16:54.187Z,15.44
2023-03-10T09:19:22.609Z,15.50
2023-03-10T09:21:50.873Z,15.56
2023-03-10T09:24:19.968Z,15.64
2023-03-10T09:26:48.239Z,15.70
2023-03-10T09:29:18.469Z,15.74
2023-03-10T09:31:48.316Z,15.80
2023-03-10T09:34:16.753Z,15.86
2023-03-10T09:36:45.175Z,15.92
2023-03-10T09:39:13.432Z,15.98
2023-03-10T09:42:14.745Z,16.05
2023-03-10T09:44:52.670Z,16.14
2023-03-10T09:47:29.245Z,16.22
2023-03-10T09:50:18.319Z,16.29
2023-03-10T09:52:49.001Z,16.33
2023-03-10T09:55:22.965Z,16.40
2023-03-10T09:57:54.176Z,16.38
2023-03-10T10:00:27.998Z,16.47
2023-03-10T10:03:08.990Z,16.51
2023-03-10T10:05:39.437Z,16.55
2023-03-10T10:08:21.536Z,16.55
2023-03-10T10:10:54.564Z,16.57
2023-03-10T10:13:25.222Z,16.60
2023-03-10T10:16:21.443Z,16.55
2023-03-10T10:19:04.665Z,16.49
2023-03-10T10:21:42.903Z,16.55
2023-03-10T10:24:11.511Z,16.57
2023-03-10T10:26:39.733Z,16.60
2023-03-10T10:29:17.348Z,16.64
2023-03-10T10:32:05.490Z,16.73
2023-03-10T10:34:34.687Z,16.78
2023-03-10T10:37:03.479Z,16.89
2023-03-10T10:39:37.734Z,16.97
2023-03-10T10:42:24.167Z,17.14
2023-03-10T10:44:54.892Z,17.31
2023-03-10T10:47:31.545Z,17.41
2023-03-10T10:50:22.867Z,17.50
2023-03-10T10:52:54.767Z,17.52
2023-03-10T10:55:29.180Z,17.59
2023-03-10T10:58:01.801Z,17.63
2023-03-10T11:00:33.817Z,17.64
2023-03-10T11:03:03.955Z,17.65
2023-03-10T11:05:38.629Z,17.59
2023-03-10T11:08:20.506Z,17.49
2023-03-10T11:10:55.961Z,17.39
2023-03-10T11:13:30.617Z,17.30
2023-03-10T11:16:08.418Z,17.24
2023-03-10T11:18:44.612Z,17.13
2023-03-10T11:21:16.664Z,17.03
2023-03-10T11:23:56.189Z,16.95
2023-03-10T11:26:38.158Z,16.94
2023-03-10T11:29:22.412Z,16.89
2023-03-10T11:31:59.200Z,16.89
2023-03-10T11:34:32.762Z,16.90
2023-03-10T11:37:15.065Z,16.97
2023-03-10T11:39:52.038Z,17.14
2023-03-10T11:42:31.674Z,17.14
2023-03-10T11:45:17.647Z,17.27
2023-03-10T11:47:58.194Z,17.36
2023-03-10T11:50:38.983Z,17.42
2023-03-10T11:53:14.473Z,17.48
2023-03-10T11:55:43.936Z,17.48
2023-03-10T11:58:25.870Z,17.48
2023-03-10T12:00:56.022Z,17.39
2023-03-10T12:03:39.968Z,17.33
2023-03-10T12:06:15.171Z,17.27
2023-03-10T12:08:43.957Z,17.27
2023-03-10T12:11:18.538Z,17.25
2023-03-10T12:13:50.589Z,17.22
2023-03-10T12:16:23.819Z,17.20
2023-03-10T12:18:53.507Z,17.24
2023-03-10T12:21:25.545Z,17.20
2023-03-10T12:23:55.565Z,17.17
2023-03-10T12:27:03.394Z,17.07
2023-03-10T12:29:38.382Z,17.10
2023-03-10T12:32:25.061Z,17.18
2023-03-10T12:35:46.016Z,17.28
2023-03-10T12:38:32.379Z,17.43
2023-03-10T12:41:02.100Z,17.58
2023-03-10T12:44:04.318Z,17.75
2023-03-10T12:46:49.045Z,17.81
2023-03-10T12:49:37.874Z,17.99
2023-03-10T12:52:25.480Z,18.06
2023-03-10T12:55:05.039Z,18.10
2023-03-10T12:57:38.646Z,18.22
2023-03-10T13:00:18.483Z,18.31
2023-03-10T13:02:53.944Z,18.31
2023-03-10T13:05:26.406Z,18.44
2023-03-10T13:08:00.931Z,18.53
2023-03-10T13:10:32.199Z,18.53
2023-03-10T13:13:04.977Z,18.60
2023-03-10T13:15:34.861Z,18.66
2023-03-10T13:18:18.716Z,18.69
2023-03-10T13:20:48.119Z,18.73
2023-03-10T13:23:24.192Z,18.70
2023-03-10T13:25:54.720Z,18.63
2023-03-10T13:28:23.569Z,18.60
2023-03-10T13:30:51.907Z,18.57
2023-03-10T13:33:25.756Z,18.45
2023-03-10T13:35:54.508Z,18.38
2023-03-10T13:38:24.639Z,18.32
2023-03-10T13:41:03.207Z,18.29
2023-03-10T13:43:37.778Z,18.22
2023-03-10T13:46:09.880Z,18.19
2023-03-10T13:48:39.886Z,18.14
2023-03-10T13:51:18.645Z,18.06
2023-03-10T13:53:52.467Z,18.00
2023-03-10T13:56:25.196Z,17.93
2023-03-10T13:58:58.129Z,17.85
2023-03-10T14:01:29.439Z,17.80
2023-03-10T14:04:00.398Z,17.73
2023-03-10T14:06:30.512Z,17.69
2023-03-10T14:09:19.451Z,17.62
2023-03-10T14:11:48.883Z,17.52
2023-03-10T14:14:29.040Z,17.49
2023-03-10T14:16:59.624Z,17.45
2023-03-10T14:19:50.949Z,17.34
2023-03-10T14:22:35.748Z,17.37
2023-03-10T14:25:14.414Z,17.35
2023-03-10T14:27:45.866Z,17.28
2023-03-10T14:30:23.431Z,17.30
2023-03-10T14:32:52.051Z,17.25
2023-03-10T14:35:22.779Z,17.21
2023-03-10T14:37:52.516Z,17.16
2023-03-10T14:40:24.678Z,17.15
2023-03-10T14:42:55.042Z,17.11
2023-03-10T14:45:29.134Z,17.00
2023-03-10T14:47:59.874Z,16.96
2023-03-10T14:50:29.656Z,16.89
2023-03-10T14:52:58.018Z,16.90
2023-03-10T14:55:27.847Z,16.86
2023-03-10T14:58:00.783Z,16.83
2023-03-10T15:00:29.572Z,16.82
2023-03-10T15:02:58.152Z,16.76
2023-03-10T15:05:45.164Z,16.70
2023-03-10T15:08:16.074Z,16.62
2023-03-10T15:10:48.933Z,16.57
2023-03-10T15:13:19.080Z,16.55
2023-03-10T15:15:49.392Z,16.52
2023-03-10T15:18:20.814Z,16.49
2023-03-10T15:20:49.601Z,16.43
2023-03-10T15:23:19.992Z,16.38
2023-03-10T15:25:50.238Z,16.32
2023-03-10T15:28:18.711Z,16.32
2023-03-10T15:30:47.517Z,16.24
2023-03-10T15:33:16.428Z,16.18
2023-03-10T15:35:45.211Z,16.05
2023-03-10T15:38:15.798Z,16.01
2023-03-10T15:40:44.279Z,15.99
2023-03-10T15:43:14.000Z,15.96
2023-03-10T15:45:46.660Z,15.93
2023-03-10T15:48:14.914Z,15.89
2023-03-10T15:50:43.984Z,15.88
2023-03-10T15:53:13.018Z,15.89
2023-03-10T15:55:43.559Z,15.83
2023-03-10T15:58:13.690Z,15.78
2023-03-10T16:00:43.809Z,15.67
2023-03-10T16:03:12.570Z,15.61
2023-03-10T16:05:49.040Z,15.53
2023-03-10T16:08:19.247Z,15.52
2023-03-10T16:10:53.753Z,15.48
2023-03-10T16:13:23.874Z,15.40
2023-03-10T16:15:52.989Z,15.39
2023-03-10T16:18:21.408Z,15.29
2023-03-10T16:20:58.574Z,15.29
2023-03-10T16:23:27.532Z,15.25
2023-03-10T16:26:08.252Z,15.16
2023-03-10T16:28:40.903Z,15.08
2023-03-10T16:31:10.957Z,15.03
2023-03-10T16:33:39.925Z,14.95
2023-03-10T16:36:12.695Z,14.91
2023-03-10T16:38:41.066Z,14.88
2023-03-10T16:41:11.177Z,14.82
2023-03-10T16:43:41.188Z,14.73
2023-03-10T16:46:12.808Z,14.66
2023-03-10T16:48:43.608Z,14.61
2023-03-10T16:51:24.532Z,14.54
2023-03-10T16:53:54.296Z,14.52
2023-03-10T16:56:25.117Z,14.41
2023-03-10T16:58:55.196Z,14.37
2023-03-10T17:01:25.089Z,14.36
2023-03-10T17:03:54.422Z,14.25
2023-03-10T17:06:26.866Z,14.18
2023-03-10T17:08:57.052Z,14.14
2023-03-10T17:11:27.552Z,14.04
2023-03-10T17:13:59.968Z,14.03
2023-03-10T17:16:30.934Z,13.98
2023-03-10T17:19:01.568Z,13.95
2023-03-10T17:21:33.324Z,13.77
2023-03-10T17:24:01.650Z,13.80
2023-03-10T17:26:30.474Z,13.76
2023-03-10T17:29:01.268Z,13.73
2023-03-10T17:31:31.115Z,13.69
2023-03-10T17:34:01.862Z,13.59
2023-03-10T17:36:30.968Z,13.55
2023-03-10T17:39:02.055Z,13.49
2023-03-10T17:41:31.920Z,13.48
2023-03-10T17:44:04.547Z,13.46
2023-03-10T17:46:33.131Z,13.43
2023-03-10T17:49:01.501Z,13.37
2023-03-10T17:51:32.185Z,13.33
2023-03-10T17:54:02.035Z,13.35
2023-03-10T17:56:31.025Z,13.33
2023-03-10T17:59:01.246Z,13.28
2023-03-10T18:01:31.015Z,13.28
2023-03-10T18:04:01.661Z,13.25
2023-03-10T18:06:32.956Z,13.16
2023-03-10T18:09:04.609Z,13.12
2023-03-10T18:11:34.926Z,13.01
2023-03-10T18:14:04.985Z,12.91
2023-03-10T18:16:36.107Z,12.78
2023-03-10T18:19:05.207Z,12.68
2023-03-10T18:21:33.558Z,12.68
2023-03-10T18:24:01.895Z,12.63
2023-03-10T18:26:31.455Z,12.59
2023-03-10T18:29:00.759Z,12.51
2023-03-10T18:31:33.202Z,12.51
2023-03-10T18:34:02.414Z,12.41
2023-03-10T18:36:32.937Z,12.40
2023-03-10T18:39:03.558Z,12.34
2023-03-10T18:41:32.693Z,12.34
2023-03-10T18:44:01.646Z,12.27
2023-03-10T18:46:31.680Z,12.14
2023-03-10T18:48:59.939Z,12.07
2023-03-10T18:51:29.499Z,11.97
2023-03-10T18:53:58.084Z,12.00
2023-03-10T18:56:29.008Z,12.01
2023-03-10T18:58:57.410Z,12.00
2023-03-10T19:01:26.793Z,12.00
2023-03-10T19:03:56.548Z,11.93
2023-03-10T19:06:24.913Z,11.92
2023-03-10T19:08:53.768Z,11.91
2023-03-10T19:11:24.297Z,11.79
2023-03-10T19:13:52.810Z,11.70
2023-03-10T19:16:21.322Z,11.57
2023-03-10T19:18:49.787Z,11.56
2023-03-10T19:21:21.936Z,11.48
2023-03-10T19:23:51.280Z,11.50
2023-03-10T19:26:19.613Z,11.44
2023-03-10T19:28:47.825Z,11.46
2023-03-10T19:31:17.677Z,11.40
2023-03-10T19:33:46.348Z,11.41
2023-03-10T19:36:15.529Z,11.29
2023-03-10T19:38:46.063Z,11.22
2023-03-10T19:41:16.918Z,11.21
2023-03-10T19:43:45.786Z,11.22
2023-03-10T19:46:15.483Z,11.20
2023-03-10T19:48:44.695Z,11.20
2023-03-10T19:51:21.905Z,11.18
2023-03-10T19:53:52.442Z,11.17
2023-03-10T19:56:21.403Z,11.12
2023-03-10T19:58:51.004Z,11.15
2023-03-10T20:01:24.325Z,11.11
2023-03-10T20:03:53.716Z,11.11
2023-03-10T20:06:22.718Z,11.07
2023-03-10T20:08:53.651Z,11.05
2023-03-10T20:11:22.379Z,11.03
2023-03-10T20:13:54.170Z,11.03
2023-03-10T20:16:24.158Z,11.04
2023-03-10T20:18:52.578Z,11.04
2023-03-10T20:21:21.093Z,11.00
2023-03-10T20:23:49.342Z,10.99
2023-03-10T20:26:19.740Z,10.92
2023-03-10T20:28:49.661Z,10.92
2023-03-10T20:31:20.515Z,10.90
2023-03-10T20:33:49.099Z,10.87
2023-03-10T20:36:17.750Z,10.83
2023-03-10T20:38:47.365Z,10.78
2023-03-10T20:41:19.247Z,10.72
2023-03-10T20:43:49.008Z,10.71
2023-03-10T20:46:19.299Z,10.67
2023-03-10T20:48:49.904Z,10.64
2023-03-10T20:51:19.350Z,10.64
2023-03-10T20:53:47.716Z,10.55
2023-03-10T20:56:16.670Z,10.56
2023-03-10T20:58:46.480Z,10.46
2023-03-10T21:01:18.622Z,10.43
2023-03-10T21:03:47.364Z,10.45
2023-03-10T21:06:15.736Z,10.44
2023-03-10T21:08:44.036Z,10.45
2023-03-10T21:11:12.452Z,10.44
2023-03-10T21:13:41.218Z,10.38
2023-03-10T21:16:11.784Z,10.37
2023-03-10T21:18:40.799Z,10.39
2023-03-10T21:21:10.408Z,10.37
2023-03-10T21:23:39.632Z,10.36
2023-03-10T21:26:12.466Z,10.29
2023-03-10T21:28:41.147Z,10.32
2023-03-10T21:31:11.207Z,10.28
2023-03-10T21:33:41.701Z,10.29
2023-03-10T21:36:13.284Z,10.31
2023-03-10T21:38:41.598Z,10.23
2023-03-10T21:41:10.313Z,10.27
2023-03-10T21:43:38.622Z,10.26
2023-03-10T21:46:06.930Z,10.25
2023-03-10T21:48:36.663Z,10.23
2023-03-10T21:51:05.552Z,10.14
2023-03-10T21:53:33.934Z,10.07
2023-03-10T21:56:02.268Z,10.05
2023-03-10T21:58:30.530Z,9.95
2023-03-10T22:00:58.885Z,9.86
2023-03-10T22:03:27.448Z,9.83
2023-03-10T22:05:57.237Z,9.80
2023-03-10T22:08:25.594Z,9.81
2023-03-10T22:10:53.973Z,9.79
2023-03-10T22:13:23.067Z,9.68
2023-03-10T22:15:51.494Z,9.64
2023-03-10T22:18:19.936Z,9.55
2023-03-10T22:20:48.254Z,9.54
2023-03-10T22:23:17.978Z,9.52
2023-03-10T22:25:46.240Z,9.49
2023-03-10T22:28:14.598Z,9.48
2023-03-10T22:30:43.550Z,9.46
2023-03-10T22:33:11.879Z,9.36
2023-03-10T22:35:40.307Z,9.30
2023-03-10T22:38:09.062Z,9.20
2023-03-10T22:40:38.741Z,9.08
2023-03-10T22:43:07.014Z,9.09
2023-03-10T22:45:35.504Z,8.87
2023-03-10T22:48:06.884Z,8.77
2023-03-10T22:50:38.168Z,8.75
2023-03-10T22:53:09.605Z,8.65
2023-03-10T22:55:42.469Z,8.58
2023-03-10T22:58:12.072Z,8.51
2023-03-10T23:00:42.497Z,8.40
2023-03-10T23:03:13.922Z,8.35
2023-03-10T23:05:44.983Z,8.20
2023-03-10T23:08:14.422Z,8.07
2023-03-10T23:10:45.381Z,7.97
2023-03-10T23:13:17.271Z,7.98
2023-03-10T23:15:46.963Z,7.93
2023-03-10T23:18:15.578Z,7.84
2023-03-10T23:20:47.815Z,7.81
2023-03-10T23:23:18.240Z,7.76
2023-03-10T23:25:51.033Z,7.63
2023-03-10T23:28:21.656Z,7.55
2023-03-10T23:30:51.582Z,7.46
2023-03-10T23:33:22.498Z,7.42
2023-03-10T23:35:54.058Z,7.35
2023-03-10T23:38:23.517Z,7.25
2023-03-10T23:40:55.414Z,7.09
2023-03-10T23:43:24.239Z,7.10
2023-03-10T23:45:52.688Z,7.03
2023-03-10T23:48:23.553Z,7.02
2023-03-10T23:50:52.206Z,7.01
2023-03-10T23:53:21.217Z,7.02
2023-03-10T23:55:49.862Z,7.00
2023-03-10T23:58:21.253Z,6.94
